sensor_id;sensor_type;location;lat;lon;timestamp;pressure;altitude;pressure_sealevel;temperature
71807;BMP280;59655;42.590;23.364;2023-01-09T00:00:39;91647.03;;;2.20
71807;BMP280;59655;42.590;23.364;2023-01-09T00:03:04;91641.31;;;2.16
71807;BMP280;59655;42.590;23.364;2023-01-09T00:05:30;91643.00;;;2.19
71807;BMP280;59655;42.590;23.364;2023-01-09T00:07:55;91640.09;;;2.06
71807;BMP280;59655;42.590;23.364;2023-01-09T00:10:21;91639.91;;;2.21
71807;BMP280;59655;42.590;23.364;2023-01-09T00:12:46;91637.06;;;2.24
71807;BMP280;59655;42.590;23.364;2023-01-09T00:15:11;91644.16;;;2.07
71807;BMP280;59655;42.590;23.364;2023-01-09T00:17:37;91632.78;;;2.32
71807;BMP280;59655;42.590;23.364;2023-01-09T00:20:04;91637.09;;;2.41
71807;BMP280;59655;42.590;23.364;2023-01-09T00:22:31;91641.13;;;2.25
71807;BMP280;59655;42.590;23.364;2023-01-09T00:24:56;91638.03;;;2.27
71807;BMP280;59655;42.590;23.364;2023-01-09T00:27:22;91633.94;;;2.09
71807;BMP280;59655;42.590;23.364;2023-01-09T00:29:47;91634.19;;;2.16
71807;BMP280;59655;42.590;23.364;2023-01-09T00:32:14;91623.84;;;1.90
71807;BMP280;59655;42.590;23.364;2023-01-09T00:34:40;91635.53;;;2.01
71807;BMP280;59655;42.590;23.364;2023-01-09T00:37:07;91642.97;;;2.13
71807;BMP280;59655;42.590;23.364;2023-01-09T00:39:39;91609.09;;;1.93
71807;BMP280;59655;42.590;23.364;2023-01-09T00:42:08;91640.06;;;2.00
71807;BMP280;59655;42.590;23.364;2023-01-09T00:44:35;91627.88;;;1.80
71807;BMP280;59655;42.590;23.364;2023-01-09T00:47:11;91629.25;;;1.75
71807;BMP280;59655;42.590;23.364;2023-01-09T00:49:38;91629.69;;;1.63
71807;BMP280;59655;42.590;23.364;2023-01-09T00:52:06;91622.19;;;1.82
71807;BMP280;59655;42.590;23.364;2023-01-09T00:54:34;91624.31;;;1.89
71807;BMP280;59655;42.590;23.364;2023-01-09T00:57:00;91627.66;;;1.95
71807;BMP280;59655;42.590;23.364;2023-01-09T00:59:26;91627.22;;;2.02
71807;BMP280;59655;42.590;23.364;2023-01-09T01:01:52;91634.09;;;1.88
71807;BMP280;59655;42.590;23.364;2023-01-09T01:04:17;91624.34;;;1.94
71807;BMP280;59655;42.590;23.364;2023-01-09T01:07:01;91610.34;;;1.97
71807;BMP280;59655;42.590;23.364;2023-01-09T01:09:45;91622.44;;;1.89
71807;BMP280;59655;42.590;23.364;2023-01-09T01:12:10;91622.69;;;2.03
71807;BMP280;59655;42.590;23.364;2023-01-09T01:14:37;91629.09;;;1.96
71807;BMP280;59655;42.590;23.364;2023-01-09T01:17:03;91614.13;;;1.96
71807;BMP280;59655;42.590;23.364;2023-01-09T01:19:29;91615.84;;;2.05
71807;BMP280;59655;42.590;23.364;2023-01-09T01:21:54;91615.88;;;2.16
71807;BMP280;59655;42.590;23.364;2023-01-09T01:24:20;91608.88;;;1.91
71807;BMP280;59655;42.590;23.364;2023-01-09T01:26:46;91613.25;;;1.62
71807;BMP280;59655;42.590;23.364;2023-01-09T01:29:11;91596.72;;;1.76
71807;BMP280;59655;42.590;23.364;2023-01-09T01:31:37;91606.53;;;2.04
71807;BMP280;59655;42.590;23.364;2023-01-09T01:34:02;91603.59;;;1.79
71807;BMP280;59655;42.590;23.364;2023-01-09T01:36:28;91591.91;;;1.69
71807;BMP280;59655;42.590;23.364;2023-01-09T01:38:53;91609.41;;;1.52
71807;BMP280;59655;42.590;23.364;2023-01-09T01:41:19;91597.13;;;1.64
71807;BMP280;59655;42.590;23.364;2023-01-09T01:46:57;91594.84;;;1.83
71807;BMP280;59655;42.590;23.364;2023-01-09T01:49:23;91595.81;;;1.96
71807;BMP280;59655;42.590;23.364;2023-01-09T01:51:51;91594.53;;;1.69
71807;BMP280;59655;42.590;23.364;2023-01-09T01:54:22;91589.22;;;1.52
71807;BMP280;59655;42.590;23.364;2023-01-09T01:56:54;91587.13;;;1.56
71807;BMP280;59655;42.590;23.364;2023-01-09T01:59:28;91576.66;;;1.56
71807;BMP280;59655;42.590;23.364;2023-01-09T02:01:58;91577.19;;;1.66
71807;BMP280;59655;42.590;23.364;2023-01-09T02:04:24;91573.31;;;1.56
71807;BMP280;59655;42.590;23.364;2023-01-09T02:06:52;91573.22;;;1.39
71807;BMP280;59655;42.590;23.364;2023-01-09T02:09:24;91570.41;;;1.48
71807;BMP280;59655;42.590;23.364;2023-01-09T02:11:55;91569.81;;;1.65
71807;BMP280;59655;42.590;23.364;2023-01-09T02:14:24;91564.28;;;1.57
71807;BMP280;59655;42.590;23.364;2023-01-09T02:17:10;91563.13;;;1.64
71807;BMP280;59655;42.590;23.364;2023-01-09T02:22:26;91553.34;;;1.53
71807;BMP280;59655;42.590;23.364;2023-01-09T02:44:15;91541.44;;;1.46
71807;BMP280;59655;42.590;23.364;2023-01-09T02:46:41;91539.78;;;1.49
71807;BMP280;59655;42.590;23.364;2023-01-09T02:49:07;91547.34;;;1.41
71807;BMP280;59655;42.590;23.364;2023-01-09T02:57:37;91557.03;;;1.24
71807;BMP280;59655;42.590;23.364;2023-01-09T03:00:21;91544.53;;;1.02
71807;BMP280;59655;42.590;23.364;2023-01-09T03:02:52;91549.56;;;1.11
71807;BMP280;59655;42.590;23.364;2023-01-09T03:05:30;91554.13;;;1.22
71807;BMP280;59655;42.590;23.364;2023-01-09T03:08:00;91548.63;;;1.14
71807;BMP280;59655;42.590;23.364;2023-01-09T03:10:40;91540.91;;;1.31
71807;BMP280;59655;42.590;23.364;2023-01-09T03:13:13;91548.31;;;1.44
71807;BMP280;59655;42.590;23.364;2023-01-09T03:15:43;91538.91;;;1.14
71807;BMP280;59655;42.590;23.364;2023-01-09T03:18:12;91526.53;;;1.09
71807;BMP280;59655;42.590;23.364;2023-01-09T03:20:38;91538.75;;;1.29
71807;BMP280;59655;42.590;23.364;2023-01-09T03:23:06;91536.63;;;1.39
71807;BMP280;59655;42.590;23.364;2023-01-09T03:25:32;91548.06;;;1.42
71807;BMP280;59655;42.590;23.364;2023-01-09T03:28:01;91545.19;;;1.34
71807;BMP280;59655;42.590;23.364;2023-01-09T03:30:28;91539.50;;;1.41
71807;BMP280;59655;42.590;23.364;2023-01-09T03:32:55;91544.50;;;1.45
71807;BMP280;59655;42.590;23.364;2023-01-09T03:35:21;91550.22;;;1.43
71807;BMP280;59655;42.590;23.364;2023-01-09T03:37:46;91534.53;;;1.43
71807;BMP280;59655;42.590;23.364;2023-01-09T03:40:11;91534.25;;;1.35
71807;BMP280;59655;42.590;23.364;2023-01-09T03:42:37;91534.03;;;1.33
71807;BMP280;59655;42.590;23.364;2023-01-09T03:45:03;91541.56;;;1.20
71807;BMP280;59655;42.590;23.364;2023-01-09T03:47:29;91534.22;;;1.24
71807;BMP280;59655;42.590;23.364;2023-01-09T03:49:54;91544.81;;;1.09
71807;BMP280;59655;42.590;23.364;2023-01-09T03:52:20;91542.28;;;1.21
71807;BMP280;59655;42.590;23.364;2023-01-09T03:54:45;91539.22;;;1.28
71807;BMP280;59655;42.590;23.364;2023-01-09T03:57:11;91533.78;;;1.37
71807;BMP280;59655;42.590;23.364;2023-01-09T03:59:36;91537.81;;;1.32
71807;BMP280;59655;42.590;23.364;2023-01-09T04:02:01;91540.50;;;1.01
71807;BMP280;59655;42.590;23.364;2023-01-09T04:04:27;91529.81;;;1.04
71807;BMP280;59655;42.590;23.364;2023-01-09T04:06:52;91535.34;;;1.17
71807;BMP280;59655;42.590;23.364;2023-01-09T04:09:18;91537.38;;;0.96
71807;BMP280;59655;42.590;23.364;2023-01-09T04:11:43;91534.13;;;1.07
71807;BMP280;59655;42.590;23.364;2023-01-09T04:14:08;91528.28;;;0.86
71807;BMP280;59655;42.590;23.364;2023-01-09T04:16:34;91527.44;;;1.01
71807;BMP280;59655;42.590;23.364;2023-01-09T04:18:59;91528.72;;;1.16
71807;BMP280;59655;42.590;23.364;2023-01-09T04:21:25;91523.75;;;1.18
71807;BMP280;59655;42.590;23.364;2023-01-09T04:23:50;91536.19;;;0.97
71807;BMP280;59655;42.590;23.364;2023-01-09T04:26:16;91524.69;;;1.21
71807;BMP280;59655;42.590;23.364;2023-01-09T04:28:41;91530.66;;;1.27
71807;BMP280;59655;42.590;23.364;2023-01-09T04:31:07;91523.84;;;0.98
71807;BMP280;59655;42.590;23.364;2023-01-09T04:33:32;91535.66;;;0.88
71807;BMP280;59655;42.590;23.364;2023-01-09T04:35:58;91526.41;;;0.92
71807;BMP280;59655;42.590;23.364;2023-01-09T04:38:24;91537.69;;;0.72
71807;BMP280;59655;42.590;23.364;2023-01-09T04:40:51;91535.66;;;0.88
71807;BMP280;59655;42.590;23.364;2023-01-09T04:43:16;91523.22;;;1.09
71807;BMP280;59655;42.590;23.364;2023-01-09T04:45:42;91529.09;;;1.04
71807;BMP280;59655;42.590;23.364;2023-01-09T04:48:07;91516.81;;;1.15
71807;BMP280;59655;42.590;23.364;2023-01-09T04:50:33;91533.75;;;1.26
71807;BMP280;59655;42.590;23.364;2023-01-09T04:52:58;91531.72;;;1.04
71807;BMP280;59655;42.590;23.364;2023-01-09T04:55:24;91515.31;;;0.97
71807;BMP280;59655;42.590;23.364;2023-01-09T04:57:49;91518.94;;;1.11
71807;BMP280;59655;42.590;23.364;2023-01-09T05:00:15;91518.84;;;0.94
71807;BMP280;59655;42.590;23.364;2023-01-09T05:02:40;91526.41;;;0.92
71807;BMP280;59655;42.590;23.364;2023-01-09T05:05:09;91505.72;;;0.83
71807;BMP280;59655;42.590;23.364;2023-01-09T05:07:35;91516.97;;;0.95
71807;BMP280;59655;42.590;23.364;2023-01-09T05:10:01;91517.56;;;0.78
71807;BMP280;59655;42.590;23.364;2023-01-09T05:12:26;91501.31;;;0.63
71807;BMP280;59655;42.590;23.364;2023-01-09T05:14:52;91519.00;;;0.79
71807;BMP280;59655;42.590;23.364;2023-01-09T05:17:17;91509.44;;;0.71
71807;BMP280;59655;42.590;23.364;2023-01-09T05:19:43;91509.72;;;0.78
71807;BMP280;59655;42.590;23.364;2023-01-09T05:22:13;91510.72;;;0.87
71807;BMP280;59655;42.590;23.364;2023-01-09T05:24:38;91510.53;;;0.96
71807;BMP280;59655;42.590;23.364;2023-01-09T05:27:04;91516.88;;;0.84
71807;BMP280;59655;42.590;23.364;2023-01-09T05:29:29;91516.22;;;0.57
71807;BMP280;59655;42.590;23.364;2023-01-09T05:31:55;91525.50;;;0.64
71807;BMP280;59655;42.590;23.364;2023-01-09T05:34:21;91507.63;;;0.51
71807;BMP280;59655;42.590;23.364;2023-01-09T05:36:46;91522.34;;;0.54
71807;BMP280;59655;42.590;23.364;2023-01-09T05:39:12;91517.13;;;0.54
71807;BMP280;59655;42.590;23.364;2023-01-09T05:41:37;91521.69;;;0.27
71807;BMP280;59655;42.590;23.364;2023-01-09T05:44:03;91500.47;;;0.46
71807;BMP280;59655;42.590;23.364;2023-01-09T05:46:30;91508.25;;;0.40
71807;BMP280;59655;42.590;23.364;2023-01-09T05:48:55;91512.94;;;0.62
71807;BMP280;59655;42.590;23.364;2023-01-09T05:51:21;91510.00;;;0.49
71807;BMP280;59655;42.590;23.364;2023-01-09T05:53:46;91504.84;;;0.60
71807;BMP280;59655;42.590;23.364;2023-01-09T05:56:12;91495.59;;;0.59
71807;BMP280;59655;42.590;23.364;2023-01-09T05:58:37;91489.41;;;0.56
71807;BMP280;59655;42.590;23.364;2023-01-09T06:01:03;91500.00;;;0.47
71807;BMP280;59655;42.590;23.364;2023-01-09T06:03:28;91500.13;;;0.64
71807;BMP280;59655;42.590;23.364;2023-01-09T06:05:54;91495.41;;;0.68
71807;BMP280;59655;42.590;23.364;2023-01-09T06:08:19;91495.38;;;0.63
71807;BMP280;59655;42.590;23.364;2023-01-09T06:10:45;91493.09;;;0.44
71807;BMP280;59655;42.590;23.364;2023-01-09T06:13:11;91492.97;;;0.59
71807;BMP280;59655;42.590;23.364;2023-01-09T06:15:36;91495.50;;;0.48
71807;BMP280;59655;42.590;23.364;2023-01-09T06:18:02;91489.81;;;0.49
71807;BMP280;59655;42.590;23.364;2023-01-09T06:20:29;91495.38;;;0.63
71807;BMP280;59655;42.590;23.364;2023-01-09T06:22:54;91501.09;;;0.67
71807;BMP280;59655;42.590;23.364;2023-01-09T06:25:20;91492.00;;;0.56
71807;BMP280;59655;42.590;23.364;2023-01-09T06:27:45;91493.88;;;0.56
71807;BMP280;59655;42.590;23.364;2023-01-09T06:30:11;91497.41;;;0.47
71807;BMP280;59655;42.590;23.364;2023-01-09T06:32:36;91499.22;;;0.35
71807;BMP280;59655;42.590;23.364;2023-01-09T06:35:02;91486.75;;;0.51
71807;BMP280;59655;42.590;23.364;2023-01-09T06:37:27;91487.00;;;0.53
71807;BMP280;59655;42.590;23.364;2023-01-09T06:39:53;91482.91;;;0.78
71807;BMP280;59655;42.590;23.364;2023-01-09T06:42:19;91480.28;;;0.78
71807;BMP280;59655;42.590;23.364;2023-01-09T06:44:44;91482.72;;;0.87
71807;BMP280;59655;42.590;23.364;2023-01-09T06:47:10;91492.09;;;1.05
71807;BMP280;59655;42.590;23.364;2023-01-09T06:49:35;91494.50;;;1.14
71807;BMP280;59655;42.590;23.364;2023-01-09T06:52:02;91491.13;;;1.03
71807;BMP280;59655;42.590;23.364;2023-01-09T06:54:29;91490.34;;;0.91
71807;BMP280;59655;42.590;23.364;2023-01-09T06:56:55;91490.41;;;1.02
71807;BMP280;59655;42.590;23.364;2023-01-09T06:59:20;91493.00;;;1.02
71807;BMP280;59655;42.590;23.364;2023-01-09T07:01:45;91491.66;;;1.12
71807;BMP280;59655;42.590;23.364;2023-01-09T07:04:11;91486.50;;;1.24
71807;BMP280;59655;42.590;23.364;2023-01-09T07:06:36;91489.13;;;1.35
71807;BMP280;59655;42.590;23.364;2023-01-09T07:09:02;91484.63;;;1.41
71807;BMP280;59655;42.590;23.364;2023-01-09T07:11:30;91480.84;;;1.48
71807;BMP280;59655;42.590;23.364;2023-01-09T07:13:55;91471.34;;;1.50
71807;BMP280;59655;42.590;23.364;2023-01-09T07:16:21;91481.34;;;1.52
71807;BMP280;59655;42.590;23.364;2023-01-09T07:18:46;91487.28;;;1.52
71807;BMP280;59655;42.590;23.364;2023-01-09T07:21:11;91478.25;;;1.53
71807;BMP280;59655;42.590;23.364;2023-01-09T07:23:37;91490.88;;;1.61
71807;BMP280;59655;42.590;23.364;2023-01-09T07:26:02;91493.97;;;1.59
71807;BMP280;59655;42.590;23.364;2023-01-09T07:28:28;91494.22;;;1.67
71807;BMP280;59655;42.590;23.364;2023-01-09T07:30:53;91490.66;;;1.70
71807;BMP280;59655;42.590;23.364;2023-01-09T07:33:19;91486.88;;;1.71
71807;BMP280;59655;42.590;23.364;2023-01-09T07:35:44;91493.06;;;1.79
71807;BMP280;59655;42.590;23.364;2023-01-09T07:38:10;91490.22;;;1.83
71807;BMP280;59655;42.590;23.364;2023-01-09T07:40:35;91488.31;;;1.83
71807;BMP280;59655;42.590;23.364;2023-01-09T07:43:01;91493.53;;;1.89
71807;BMP280;59655;42.590;23.364;2023-01-09T07:45:26;91485.72;;;1.94
71807;BMP280;59655;42.590;23.364;2023-01-09T07:47:52;91491.66;;;1.89
71807;BMP280;59655;42.590;23.364;2023-01-09T07:50:18;91487.84;;;1.96
71807;BMP280;59655;42.590;23.364;2023-01-09T07:52:44;91489.78;;;2.01
71807;BMP280;59655;42.590;23.364;2023-01-09T07:55:10;91495.00;;;2.12
71807;BMP280;59655;42.590;23.364;2023-01-09T07:57:36;91500.50;;;2.26
71807;BMP280;59655;42.590;23.364;2023-01-09T08:00:01;91508.38;;;2.31
71807;BMP280;59655;42.590;23.364;2023-01-09T08:02:28;91496.94;;;2.34
71807;BMP280;59655;42.590;23.364;2023-01-09T08:04:53;91511.19;;;2.39
71807;BMP280;59655;42.590;23.364;2023-01-09T08:07:19;91514.06;;;2.41
71807;BMP280;59655;42.590;23.364;2023-01-09T08:09:44;91512.88;;;2.42
71807;BMP280;59655;42.590;23.364;2023-01-09T08:12:10;91515.50;;;2.48
71807;BMP280;59655;42.590;23.364;2023-01-09T08:14:35;91516.91;;;2.54
71807;BMP280;59655;42.590;23.364;2023-01-09T08:17:01;91516.69;;;2.58
71807;BMP280;59655;42.590;23.364;2023-01-09T08:19:27;91516.47;;;2.62
71807;BMP280;59655;42.590;23.364;2023-01-09T08:21:52;91522.16;;;2.66
71807;BMP280;59655;42.590;23.364;2023-01-09T08:24:18;91523.81;;;2.69
71807;BMP280;59655;42.590;23.364;2023-01-09T08:26:43;91520.97;;;2.72
71807;BMP280;59655;42.590;23.364;2023-01-09T08:29:09;91509.28;;;2.73
71807;BMP280;59655;42.590;23.364;2023-01-09T08:31:35;91529.28;;;2.76
71807;BMP280;59655;42.590;23.364;2023-01-09T08:34:00;91522.13;;;2.83
71807;BMP280;59655;42.590;23.364;2023-01-09T08:36:26;91513.56;;;2.88
71807;BMP280;59655;42.590;23.364;2023-01-09T08:38:51;91513.06;;;2.89
71807;BMP280;59655;42.590;23.364;2023-01-09T08:41:17;91513.53;;;2.93
71807;BMP280;59655;42.590;23.364;2023-01-09T08:44:01;91526.19;;;2.95
71807;BMP280;59655;42.590;23.364;2023-01-09T08:46:45;91518.06;;;2.98
71807;BMP280;59655;42.590;23.364;2023-01-09T08:49:29;91511.88;;;3.02
71807;BMP280;59655;42.590;23.364;2023-01-09T08:51:54;91523.75;;;3.03
71807;BMP280;59655;42.590;23.364;2023-01-09T08:54:20;91508.03;;;3.08
71807;BMP280;59655;42.590;23.364;2023-01-09T08:56:45;91508.25;;;3.10
71807;BMP280;59655;42.590;23.364;2023-01-09T08:59:12;91507.56;;;3.10
71807;BMP280;59655;42.590;23.364;2023-01-09T09:01:38;91480.88;;;3.11
71807;BMP280;59655;42.590;23.364;2023-01-09T09:04:03;91502.06;;;3.13
71807;BMP280;59655;42.590;23.364;2023-01-09T09:06:30;91496.09;;;3.18
71807;BMP280;59655;42.590;23.364;2023-01-09T09:08:55;91498.22;;;3.20
71807;BMP280;59655;42.590;23.364;2023-01-09T09:11:21;91483.47;;;3.23
71807;BMP280;59655;42.590;23.364;2023-01-09T09:13:46;91487.22;;;3.27
71807;BMP280;59655;42.590;23.364;2023-01-09T09:16:12;91494.38;;;3.32
71807;BMP280;59655;42.590;23.364;2023-01-09T09:18:37;91469.34;;;3.37
71807;BMP280;59655;42.590;23.364;2023-01-09T09:21:02;91486.72;;;3.40
71807;BMP280;59655;42.590;23.364;2023-01-09T09:23:28;91465.00;;;3.45
71807;BMP280;59655;42.590;23.364;2023-01-09T09:25:53;91480.22;;;3.52
71807;BMP280;59655;42.590;23.364;2023-01-09T09:28:19;91459.91;;;3.58
71807;BMP280;59655;42.590;23.364;2023-01-09T09:30:44;91448.94;;;3.60
71807;BMP280;59655;42.590;23.364;2023-01-09T09:33:09;91459.19;;;3.64
71807;BMP280;59655;42.590;23.364;2023-01-09T09:35:35;91455.09;;;3.74
71807;BMP280;59655;42.590;23.364;2023-01-09T09:38:02;91445.81;;;3.73
71807;BMP280;59655;42.590;23.364;2023-01-09T09:48:59;91424.97;;;3.80
71807;BMP280;59655;42.590;23.364;2023-01-09T09:52:29;91429.72;;;3.82
71807;BMP280;59655;42.590;23.364;2023-01-09T09:54:40;91396.34;;;3.83
71807;BMP280;59655;42.590;23.364;2023-01-09T09:57:13;91408.22;;;3.89
71807;BMP280;59655;42.590;23.364;2023-01-09T09:59:41;91396.75;;;3.92
71807;BMP280;59655;42.590;23.364;2023-01-09T10:02:24;91389.13;;;3.94
71807;BMP280;59655;42.590;23.364;2023-01-09T10:04:59;91389.34;;;3.96
71807;BMP280;59655;42.590;23.364;2023-01-09T10:07:34;91371.19;;;3.98
71807;BMP280;59655;42.590;23.364;2023-01-09T10:10:04;91345.13;;;4.00
71807;BMP280;59655;42.590;23.364;2023-01-09T10:12:45;91377.53;;;4.09
71807;BMP280;59655;42.590;23.364;2023-01-09T10:15:17;91346.50;;;4.07
71807;BMP280;59655;42.590;23.364;2023-01-09T10:31:39;91332.59;;;4.18
71807;BMP280;59655;42.590;23.364;2023-01-09T10:39:38;91323.88;;;4.29
71807;BMP280;59655;42.590;23.364;2023-01-09T10:45:30;91307.09;;;4.37
71807;BMP280;59655;42.590;23.364;2023-01-09T10:47:48;91300.84;;;4.40
71807;BMP280;59655;42.590;23.364;2023-01-09T10:52:44;91295.31;;;4.44
71807;BMP280;59655;42.590;23.364;2023-01-09T10:57:49;91296.38;;;4.54
71807;BMP280;59655;42.590;23.364;2023-01-09T11:00:19;91294.41;;;4.60
71807;BMP280;59655;42.590;23.364;2023-01-09T11:02:46;91287.94;;;4.61
71807;BMP280;59655;42.590;23.364;2023-01-09T11:05:14;91289.06;;;4.66
71807;BMP280;59655;42.590;23.364;2023-01-09T11:07:44;91266.56;;;4.71
71807;BMP280;59655;42.590;23.364;2023-01-09T11:10:10;91270.34;;;4.75
71807;BMP280;59655;42.590;23.364;2023-01-09T11:12:37;91270.94;;;4.81
71807;BMP280;59655;42.590;23.364;2023-01-09T11:17:50;91262.94;;;4.93
71807;BMP280;59655;42.590;23.364;2023-01-09T11:20:25;91251.59;;;4.98
71807;BMP280;59655;42.590;23.364;2023-01-09T11:22:52;91251.59;;;4.98
71807;BMP280;59655;42.590;23.364;2023-01-09T11:25:20;91243.63;;;5.03
71807;BMP280;59655;42.590;23.364;2023-01-09T11:30:27;91255.78;;;5.07
71807;BMP280;59655;42.590;23.364;2023-01-09T11:32:57;91237.72;;;5.16
71807;BMP280;59655;42.590;23.364;2023-01-09T11:35:28;91236.53;;;5.17
71807;BMP280;59655;42.590;23.364;2023-01-09T11:38:17;91238.13;;;5.20
71807;BMP280;59655;42.590;23.364;2023-01-09T11:43:19;91231.88;;;5.23
71807;BMP280;59655;42.590;23.364;2023-01-09T11:45:51;91235.72;;;5.22
71807;BMP280;59655;42.590;23.364;2023-01-09T11:51:31;91237.34;;;5.26
71807;BMP280;59655;42.590;23.364;2023-01-09T11:54:21;91235.44;;;5.26
71807;BMP280;59655;42.590;23.364;2023-01-09T11:56:49;91228.66;;;5.31
71807;BMP280;59655;42.590;23.364;2023-01-09T11:59:20;91235.13;;;5.30
71807;BMP280;59655;42.590;23.364;2023-01-09T12:05:04;91229.28;;;5.37
71807;BMP280;59655;42.590;23.364;2023-01-09T12:10:31;91222.72;;;5.43
71807;BMP280;59655;42.590;23.364;2023-01-09T12:13:19;91217.75;;;5.40
71807;BMP280;59655;42.590;23.364;2023-01-09T12:35:44;91183.97;;;5.71
71807;BMP280;59655;42.590;23.364;2023-01-09T12:38:39;91193.78;;;5.70
71807;BMP280;59655;42.590;23.364;2023-01-09T12:41:29;91164.44;;;5.66
71807;BMP280;59655;42.590;23.364;2023-01-09T12:49:24;91170.91;;;5.65
71807;BMP280;59655;42.590;23.364;2023-01-09T12:52:04;91185.47;;;5.66
71807;BMP280;59655;42.590;23.364;2023-01-09T12:54:38;91170.19;;;5.64
71807;BMP280;59655;42.590;23.364;2023-01-09T12:57:18;91173.53;;;5.65
71807;BMP280;59655;42.590;23.364;2023-01-09T12:59:56;91176.28;;;5.73
71807;BMP280;59655;42.590;23.364;2023-01-09T13:02:24;91167.66;;;5.72
71807;BMP280;59655;42.590;23.364;2023-01-09T13:04:59;91156.44;;;5.72
71807;BMP280;59655;42.590;23.364;2023-01-09T13:08:07;91150.66;;;5.73
71807;BMP280;59655;42.590;23.364;2023-01-09T13:10:40;91146.41;;;5.70
71807;BMP280;59655;42.590;23.364;2023-01-09T13:13:24;91159.28;;;5.60
71807;BMP280;59655;42.590;23.364;2023-01-09T13:15:54;91151.41;;;5.60
71807;BMP280;59655;42.590;23.364;2023-01-09T13:18:45;91149.16;;;5.64
71807;BMP280;59655;42.590;23.364;2023-01-09T13:21:12;91146.50;;;5.64
71807;BMP280;59655;42.590;23.364;2023-01-09T13:23:56;91143.38;;;5.66
71807;BMP280;59655;42.590;23.364;2023-01-09T13:26:34;91141.56;;;5.61
71807;BMP280;59655;42.590;23.364;2023-01-09T13:29:28;91145.28;;;5.65
71807;BMP280;59655;42.590;23.364;2023-01-09T13:34:51;91150.91;;;5.62
71807;BMP280;59655;42.590;23.364;2023-01-09T13:37:26;91163.00;;;5.52
71807;BMP280;59655;42.590;23.364;2023-01-09T13:39:57;91149.47;;;5.61
71807;BMP280;59655;42.590;23.364;2023-01-09T13:42:23;91138.44;;;5.62
71807;BMP280;59655;42.590;23.364;2023-01-09T13:47:41;91122.53;;;5.55
71807;BMP280;59655;42.590;23.364;2023-01-09T13:52:40;91119.81;;;5.60
71807;BMP280;59655;42.590;23.364;2023-01-09T13:58:26;91123.75;;;5.54
71807;BMP280;59655;42.590;23.364;2023-01-09T14:08:03;91128.72;;;5.57
71807;BMP280;59655;42.590;23.364;2023-01-09T14:12:56;91123.25;;;5.42
71807;BMP280;59655;42.590;23.364;2023-01-09T14:15:34;91102.00;;;5.53
71807;BMP280;59655;42.590;23.364;2023-01-09T14:18:45;91128.81;;;5.38
71807;BMP280;59655;42.590;23.364;2023-01-09T14:21:02;91110.09;;;5.42
71807;BMP280;59655;42.590;23.364;2023-01-09T14:26:24;91115.06;;;5.45
71807;BMP280;59655;42.590;23.364;2023-01-09T14:31:52;91103.53;;;5.35
71807;BMP280;59655;42.590;23.364;2023-01-09T14:34:29;91098.06;;;5.33
71807;BMP280;59655;42.590;23.364;2023-01-09T14:37:00;91085.53;;;5.39
71807;BMP280;59655;42.590;23.364;2023-01-09T14:39:29;91087.75;;;5.35
71807;BMP280;59655;42.590;23.364;2023-01-09T14:41:58;91079.38;;;5.23
71807;BMP280;59655;42.590;23.364;2023-01-09T14:47:42;91059.44;;;5.28
71807;BMP280;59655;42.590;23.364;2023-01-09T14:50:29;91066.84;;;5.30
71807;BMP280;59655;42.590;23.364;2023-01-09T14:53:14;91062.84;;;5.36
71807;BMP280;59655;42.590;23.364;2023-01-09T14:56:00;91063.25;;;5.40
71807;BMP280;59655;42.590;23.364;2023-01-09T15:03:44;91032.31;;;5.33
71807;BMP280;59655;42.590;23.364;2023-01-09T15:06:22;91046.88;;;5.34
71807;BMP280;59655;42.590;23.364;2023-01-09T15:11:50;91025.63;;;5.32
71807;BMP280;59655;42.590;23.364;2023-01-09T15:14:36;91025.34;;;5.22
71807;BMP280;59655;42.590;23.364;2023-01-09T15:17:05;91036.81;;;5.12
71807;BMP280;59655;42.590;23.364;2023-01-09T15:19:31;91045.09;;;4.43
71807;BMP280;59655;42.590;23.364;2023-01-09T15:22:03;91033.75;;;4.68
71807;BMP280;59655;42.590;23.364;2023-01-09T15:24:31;91034.50;;;4.95
71807;BMP280;59655;42.590;23.364;2023-01-09T15:27:04;91025.91;;;4.94
71807;BMP280;59655;42.590;23.364;2023-01-09T15:29:34;91035.06;;;5.01
71807;BMP280;59655;42.590;23.364;2023-01-09T15:32:15;91025.97;;;5.02
71807;BMP280;59655;42.590;23.364;2023-01-09T15:34:46;91022.53;;;5.07
71807;BMP280;59655;42.590;23.364;2023-01-09T15:39:50;91046.06;;;4.73
71807;BMP280;59655;42.590;23.364;2023-01-09T15:42:23;91042.03;;;4.85
71807;BMP280;59655;42.590;23.364;2023-01-09T15:45:14;91033.06;;;4.94
71807;BMP280;59655;42.590;23.364;2023-01-09T15:47:42;91032.25;;;4.99
71807;BMP280;59655;42.590;23.364;2023-01-09T15:50:12;91029.53;;;4.91
71807;BMP280;59655;42.590;23.364;2023-01-09T15:52:38;91044.59;;;4.91
71807;BMP280;59655;42.590;23.364;2023-01-09T15:55:21;91052.66;;;4.79
71807;BMP280;59655;42.590;23.364;2023-01-09T15:57:51;91032.94;;;4.86
71807;BMP280;59655;42.590;23.364;2023-01-09T16:00:34;91040.41;;;4.82
71807;BMP280;59655;42.590;23.364;2023-01-09T16:03:19;91044.59;;;4.91
71807;BMP280;59655;42.590;23.364;2023-01-09T16:05:49;91048.41;;;4.90
71807;BMP280;59655;42.590;23.364;2023-01-09T16:08:27;91028.41;;;4.87
71807;BMP280;59655;42.590;23.364;2023-01-09T16:11:02;91024.75;;;4.76
71807;BMP280;59655;42.590;23.364;2023-01-09T16:13:30;91039.69;;;4.55
71807;BMP280;59655;42.590;23.364;2023-01-09T16:15:57;91022.63;;;4.75
71807;BMP280;59655;42.590;23.364;2023-01-09T16:18:29;91032.44;;;4.74
71807;BMP280;59655;42.590;23.364;2023-01-09T16:23:35;91017.06;;;4.65
71807;BMP280;59655;42.590;23.364;2023-01-09T16:26:10;91026.78;;;4.70
71807;BMP280;59655;42.590;23.364;2023-01-09T16:28:36;91014.97;;;4.77
71807;BMP280;59655;42.590;23.364;2023-01-09T16:31:19;91029.91;;;4.69
71807;BMP280;59655;42.590;23.364;2023-01-09T16:33:47;91021.47;;;4.43
71807;BMP280;59655;42.590;23.364;2023-01-09T16:36:16;91012.81;;;4.49
71807;BMP280;59655;42.590;23.364;2023-01-09T16:38:43;90997.25;;;4.37
71807;BMP280;59655;42.590;23.364;2023-01-09T16:41:17;91024.88;;;4.25
71807;BMP280;59655;42.590;23.364;2023-01-09T16:44:02;91000.22;;;4.28
71807;BMP280;59655;42.590;23.364;2023-01-09T16:46:32;91010.72;;;4.28
71807;BMP280;59655;42.590;23.364;2023-01-09T16:48:58;90987.53;;;4.32
71807;BMP280;59655;42.590;23.364;2023-01-09T16:51:24;90985.13;;;4.48
71807;BMP280;59655;42.590;23.364;2023-01-09T16:53:50;91006.34;;;4.50